Kezdőlap
METAR-TAF:

METAR-TAF

Repülőterek :

Muscatine, Iowa, Amerikai Egyesült Államok

földrajzi szélesség: 41-22N, földrajzi hosszúság: 091-09W, magasság: 167 m

Jelenlegi meteorológiai megfigyelések

A jelentés 14 perccel ezelõtt készült, 08:15 UTC
Dél-délnyugati szél 6 kt
Hőmérséklet 24°C
Páratartalom 94%
Légköri nyomás 1013 hPa
Látótávolság: 16.1 km
Szórványos felhőzet 3400 lábon
Szakadozott felhőzet 4100 lábon

METAR: KMUT 100815Z AUTO 20006KT 10SM SCT034 BKN041 24/23 A2992 RMK AO2

Idő: 03:29 (08:29 UTC)


TAF: hiányzik

Meteorológiai megfigyelések és előrejelzések több, mint 4000 repülőtéren (METAR és TAF jelentéseket).

A térképen piros és sárga pontok jelzik az elérhető meteorológiai állomásokat.

Mozgassa az egeret a pont fölött, hogy megjelenjen az állomás neve.

Azután kattintson az időjárási megfigyelések és előrejelzések megtekintéséhez.

A térkép megváltoztatása: kattintson a fekete keresztel jelölt zöld gombra ráközelítéshez, a vonallal jelölt zöld gombra távolításhoz, vagy a zöld nyilakra a szomszédos térképek eléréséhez.


METAR-TAF: